Northside, North Carolina
Current Conditions -  °F | °C
As of 5:35 AM on Monday 22 Dec 2014 (Local Time) from KMRN Reporting Station
Haze Haze  
Wind Chill: 39°   Ceiling: 1900
Heat Index: 39°   Visibility: 5mi
Dew Point: 38°   Wind: 3mph
Humidity: 95%   Direction: 40°NE
Pressure: 30.16"   Gusts: NA
Location:  35.78°N, 81.75°W
Report Text: KMRN 221035Z AUTO 04003KT 5SM BR SCT011 OVC019 04/03 A3016 RMK AO2 T00400032
Loading
Personal Weather Stations






























Interactive Weather Map New forecast layout! Learn more

10-Day Weather Forecast

Advertisements
Track Severe Weather on mobile